Time;durP1;ratioP1;P1;durP2;ratioP2;P2;SDS_P1;SDS_P2;PMS_P1;PMS_P2;Temp;Humidity;BMP_temperature;BMP_pressure;BME280_temperature;BME280_humidity;BME280_pressure;Samples;Min_cycle;Max_cycle;Signal;HPM_P1;HPM_P2
2023/07/02 00:01:47;;;;;;;3.60;3.30;;;19.60;99.90;;;;;;5017929;28;20177;-85
2023/07/02 00:04:15;;;;;;;3.07;2.87;;;19.60;99.90;;;;;;5014577;28;20725;-85
2023/07/02 00:06:42;;;;;;;3.00;2.70;;;19.60;99.90;;;;;;5014413;28;20179;-84
2023/07/02 00:09:10;;;;;;;3.30;3.00;;;19.60;99.90;;;;;;5014290;28;20169;-85
2023/07/02 00:11:39;;;;;;;3.60;2.97;;;19.60;99.90;;;;;;4996745;28;20200;-85
2023/07/02 00:14:08;;;;;;;2.80;2.70;;;19.60;99.90;;;;;;4996847;28;20655;-83
2023/07/02 00:16:37;;;;;;;3.47;3.17;;;19.60;99.90;;;;;;5014373;28;20203;-84
2023/07/02 00:19:03;;;;;;;2.60;2.50;;;19.60;99.90;;;;;;5014257;28;20177;-84
2023/07/02 00:21:29;;;;;;;3.30;3.10;;;19.60;99.90;;;;;;5015127;28;20200;-84
2023/07/02 00:23:58;;;;;;;2.93;2.73;;;19.50;99.90;;;;;;5014930;28;20673;-85
2023/07/02 00:26:28;;;;;;;2.83;2.60;;;19.50;99.90;;;;;;5014659;28;20221;-84
2023/07/02 00:28:55;;;;;;;3.20;2.90;;;19.40;99.90;;;;;;5015310;28;20173;-84
2023/07/02 00:31:22;;;;;;;3.40;3.10;;;19.40;99.90;;;;;;5029944;28;20185;-82
2023/07/02 00:33:49;;;;;;;3.00;2.80;;;19.30;99.90;;;;;;5025011;28;20174;-83
2023/07/02 00:36:15;;;;;;;3.50;3.20;;;19.30;99.90;;;;;;5022289;28;20237;-84
2023/07/02 00:38:42;;;;;;;3.23;3.03;;;19.20;99.90;;;;;;5023048;28;20169;-83
2023/07/02 00:41:09;;;;;;;2.87;2.73;;;19.20;99.90;;;;;;5014487;28;20177;-84
2023/07/02 00:43:35;;;;;;;2.87;2.67;;;19.30;99.90;;;;;;5014242;28;20172;-86
2023/07/02 00:46:02;;;;;;;3.70;3.50;;;19.30;99.90;;;;;;5014304;28;20173;-83
2023/07/02 00:48:29;;;;;;;3.23;3.03;;;19.30;99.90;;;;;;5025225;28;20160;-84
2023/07/02 00:50:55;;;;;;;3.57;3.00;;;19.30;99.90;;;;;;5024824;28;20351;-85
2023/07/02 00:53:21;;;;;;;3.20;2.90;;;19.30;99.90;;;;;;5014636;28;20205;-84
2023/07/02 00:55:47;;;;;;;3.60;3.00;;;19.30;99.90;;;;;;5014342;28;20620;-84
2023/07/02 00:58:15;;;;;;;3.07;2.87;;;19.40;99.90;;;;;;4996118;28;20191;-85
2023/07/02 01:00:42;;;;;;;3.07;2.87;;;19.30;99.90;;;;;;5014059;28;20196;-84
2023/07/02 01:03:08;;;;;;;3.07;2.87;;;19.40;99.90;;;;;;4995981;28;20191;-84
2023/07/02 01:05:36;;;;;;;3.20;3.00;;;19.40;99.90;;;;;;5017458;28;20204;-83
2023/07/02 01:08:05;;;;;;;3.37;3.07;;;19.40;99.90;;;;;;5018269;28;20169;-85
2023/07/02 01:10:32;;;;;;;3.40;3.10;;;19.40;99.90;;;;;;5018001;28;20169;-86
2023/07/02 01:13:10;;;;;;;3.77;3.43;;;19.40;99.90;;;;;;5019489;28;20177;-85
2023/07/02 01:15:38;;;;;;;3.90;3.60;;;19.40;99.90;;;;;;5023420;28;20167;-83
2023/07/02 01:18:07;;;;;;;4.27;3.67;;;19.30;99.90;;;;;;5003116;28;20184;-83
2023/07/02 01:20:34;;;;;;;4.00;3.67;;;19.20;99.90;;;;;;5012700;28;20173;-83
2023/07/02 01:23:03;;;;;;;3.93;3.60;;;19.20;99.90;;;;;;5035479;28;20160;-84
2023/07/02 01:25:29;;;;;;;4.57;3.70;;;19.10;99.90;;;;;;5026768;28;20211;-85
2023/07/02 01:27:56;;;;;;;4.50;4.10;;;19.00;99.90;;;;;;5001305;28;20772;-84
2023/07/02 01:30:22;;;;;;;4.07;3.77;;;19.00;99.90;;;;;;5018406;28;20169;-84
2023/07/02 01:32:47;;;;;;;3.67;3.37;;;19.00;99.90;;;;;;5017948;28;20540;-84
2023/07/02 01:35:13;;;;;;;3.90;3.60;;;18.90;99.90;;;;;;5000131;28;20185;-84
2023/07/02 01:37:39;;;;;;;4.13;3.50;;;18.90;99.90;;;;;;5019529;28;20617;-84
2023/07/02 01:40:09;;;;;;;4.03;3.73;;;18.80;99.90;;;;;;5020434;28;20315;-84
2023/07/02 01:42:35;;;;;;;4.03;3.73;;;18.80;99.90;;;;;;5020534;28;20319;-83
2023/07/02 01:45:00;;;;;;;3.70;3.40;;;18.80;99.90;;;;;;5021160;28;20197;-83
2023/07/02 01:47:26;;;;;;;3.40;3.20;;;18.80;99.90;;;;;;5005356;28;20245;-84
2023/07/02 01:49:52;;;;;;;3.83;3.23;;;18.80;99.90;;;;;;5027965;28;20173;-84
2023/07/02 01:52:18;;;;;;;3.70;3.40;;;18.80;99.90;;;;;;5036671;28;20205;-82
2023/07/02 01:54:45;;;;;;;3.90;3.60;;;18.70;99.90;;;;;;5023292;28;20173;-84
2023/07/02 01:57:10;;;;;;;3.50;3.30;;;18.70;99.90;;;;;;5001094;28;20588;-83
2023/07/02 01:59:37;;;;;;;3.97;3.67;;;18.60;99.90;;;;;;5019991;28;20278;-83
2023/07/02 02:02:03;;;;;;;4.03;3.40;;;18.60;99.90;;;;;;5017154;28;20197;-83
2023/07/02 02:04:29;;;;;;;4.10;3.80;;;18.60;99.90;;;;;;4999380;28;20299;-83
2023/07/02 02:06:55;;;;;;;3.33;3.13;;;18.50;99.90;;;;;;5016983;28;20177;-84
2023/07/02 02:09:21;;;;;;;3.70;3.40;;;18.40;99.90;;;;;;5016932;28;20184;-83
2023/07/02 02:11:49;;;;;;;3.90;3.60;;;18.40;99.90;;;;;;5016859;28;20533;-85
2023/07/02 02:14:16;;;;;;;3.93;3.63;;;18.40;99.90;;;;;;5016795;28;20184;-83
2023/07/02 02:16:45;;;;;;;3.37;3.17;;;18.40;99.90;;;;;;5023219;28;20223;-83
2023/07/02 02:19:11;;;;;;;4.10;3.70;;;18.40;99.90;;;;;;5018597;28;20184;-84
2023/07/02 02:21:36;;;;;;;5.93;4.17;;;18.40;99.90;;;;;;5018536;28;20243;-84
2023/07/02 02:24:02;;;;;;;5.27;3.70;;;18.40;99.90;;;;;;5027267;28;20197;-82
2023/07/02 02:26:29;;;;;;;5.53;4.20;;;18.40;99.90;;;;;;5022972;28;20228;-83
2023/07/02 02:28:56;;;;;;;3.90;3.60;;;18.30;99.90;;;;;;5007934;28;20205;-84
2023/07/02 02:31:22;;;;;;;4.00;3.70;;;18.20;99.90;;;;;;5019109;28;20177;-82
2023/07/02 02:33:48;;;;;;;4.87;3.90;;;18.20;99.90;;;;;;5017328;28;20184;-84
2023/07/02 02:36:14;;;;;;;4.20;3.73;;;18.10;99.90;;;;;;5016460;28;20192;-83
2023/07/02 02:38:40;;;;;;;3.83;3.60;;;18.00;99.90;;;;;;5016179;28;20180;-82
2023/07/02 02:41:08;;;;;;;4.37;4.00;;;18.00;99.90;;;;;;5036580;28;20164;-83
2023/07/02 02:43:34;;;;;;;4.03;3.73;;;17.90;99.90;;;;;;5024004;28;20169;-85
2023/07/02 02:46:00;;;;;;;3.97;3.67;;;17.90;99.90;;;;;;5017059;28;20540;-85
2023/07/02 02:48:26;;;;;;;3.93;3.63;;;17.90;99.90;;;;;;5001333;28;20189;-84
2023/07/02 02:50:52;;;;;;;4.67;4.00;;;17.80;99.90;;;;;;5017812;28;20188;-84
2023/07/02 02:53:17;;;;;;;4.20;3.90;;;17.80;99.90;;;;;;5022028;28;20181;-81
2023/07/02 02:55:43;;;;;;;4.30;4.00;;;17.80;99.90;;;;;;5022816;28;20201;-83
2023/07/02 02:58:09;;;;;;;3.97;3.67;;;17.70;99.90;;;;;;5016225;28;20232;-82
2023/07/02 03:00:35;;;;;;;3.80;3.50;;;17.70;99.90;;;;;;5016141;28;20207;-82
2023/07/02 03:03:01;;;;;;;5.00;4.20;;;17.70;99.90;;;;;;5016011;28;20605;-84
2023/07/02 03:05:27;;;;;;;4.37;4.00;;;17.70;99.90;;;;;;5016378;28;20215;-83
2023/07/02 03:07:53;;;;;;;5.00;4.47;;;17.60;99.90;;;;;;5016145;28;20169;-84
2023/07/02 03:10:19;;;;;;;5.07;4.40;;;17.60;99.90;;;;;;5017984;28;20557;-84
2023/07/02 03:12:44;;;;;;;4.33;3.93;;;17.60;99.90;;;;;;5001164;28;20183;-82
2023/07/02 03:15:10;;;;;;;4.40;4.00;;;17.50;99.90;;;;;;5016573;28;20200;-82
2023/07/02 03:17:36;;;;;;;4.60;4.20;;;17.40;99.90;;;;;;5017378;28;20503;-83
2023/07/02 03:20:07;;;;;;;4.27;3.97;;;17.40;99.90;;;;;;5000792;28;20215;-86
2023/07/02 03:22:33;;;;;;;4.63;4.20;;;17.40;99.90;;;;;;5016164;28;20165;-84
2023/07/02 03:25:00;;;;;;;4.40;4.00;;;17.40;99.90;;;;;;4998348;28;20213;-82
2023/07/02 03:27:26;;;;;;;4.70;4.23;;;17.40;99.90;;;;;;5015383;28;20220;-82
2023/07/02 03:29:52;;;;;;;4.33;3.93;;;17.40;99.90;;;;;;5036026;28;20196;-84
2023/07/02 03:32:18;;;;;;;4.67;4.27;;;17.50;99.90;;;;;;5022177;28;20188;-85
2023/07/02 03:34:44;;;;;;;4.47;4.07;;;17.50;99.90;;;;;;5039190;28;20172;-82
2023/07/02 03:37:09;;;;;;;4.63;4.23;;;17.60;99.90;;;;;;5039217;28;20216;-82
2023/07/02 03:39:35;;;;;;;4.50;4.10;;;17.50;99.90;;;;;;5038971;28;20216;-83
2023/07/02 03:42:01;;;;;;;4.87;4.47;;;17.50;99.90;;;;;;5039262;28;20234;-85
2023/07/02 03:44:27;;;;;;;4.80;4.03;;;17.60;99.90;;;;;;5022300;28;20283;-85
2023/07/02 03:46:53;;;;;;;4.73;4.30;;;17.60;99.90;;;;;;5039161;28;20237;-84
2023/07/02 03:49:19;;;;;;;5.03;4.57;;;17.60;99.90;;;;;;5021932;28;20176;-84
2023/07/02 03:51:45;;;;;;;4.70;4.17;;;17.80;99.90;;;;;;5039380;28;20176;-85
2023/07/02 03:54:10;;;;;;;4.47;4.13;;;17.80;99.90;;;;;;5039612;28;20169;-84
2023/07/02 03:56:36;;;;;;;4.23;3.90;;;17.80;99.90;;;;;;5039002;28;20165;-82
2023/07/02 03:59:02;;;;;;;4.33;4.03;;;17.90;99.90;;;;;;5038058;28;20218;-84
2023/07/02 04:01:27;;;;;;;4.67;4.27;;;17.80;99.90;;;;;;5038317;28;20176;-82
2023/07/02 04:03:55;;;;;;;4.03;3.77;;;17.80;99.90;;;;;;5038672;28;20193;-84
2023/07/02 04:06:20;;;;;;;5.00;4.50;;;17.80;99.90;;;;;;5039665;28;20195;-85
2023/07/02 04:08:46;;;;;;;6.20;4.50;;;17.80;99.90;;;;;;5037980;28;20179;-80
2023/07/02 04:11:12;;;;;;;4.60;4.17;;;17.80;99.90;;;;;;5008157;28;20187;-82
2023/07/02 04:13:39;;;;;;;4.83;4.43;;;17.90;99.90;;;;;;5032928;28;20175;-83
2023/07/02 04:16:05;;;;;;;4.97;4.47;;;17.90;99.90;;;;;;5031924;28;20274;-82
2023/07/02 04:18:31;;;;;;;4.60;4.30;;;17.90;99.90;;;;;;5029758;28;20173;-84
2023/07/02 04:20:58;;;;;;;5.20;4.63;;;18.00;99.90;;;;;;5017671;28;20165;-85
2023/07/02 04:23:24;;;;;;;4.23;3.93;;;18.00;99.90;;;;;;5017213;28;20184;-84
2023/07/02 04:25:50;;;;;;;5.27;4.87;;;17.90;99.90;;;;;;5019560;28;20235;-85
2023/07/02 04:28:16;;;;;;;4.30;4.00;;;17.90;99.90;;;;;;5003441;28;20591;-85
2023/07/02 04:30:42;;;;;;;4.90;4.50;;;18.00;99.90;;;;;;5018299;28;20204;-84
2023/07/02 04:33:08;;;;;;;4.70;4.30;;;18.10;99.90;;;;;;5015592;28;20176;-80
2023/07/02 04:35:34;;;;;;;4.40;4.10;;;18.10;99.90;;;;;;4998456;28;20181;-85
2023/07/02 04:38:01;;;;;;;4.70;4.33;;;18.20;99.90;;;;;;5015553;28;20652;-84
2023/07/02 04:40:27;;;;;;;4.83;4.43;;;18.20;99.90;;;;;;5014359;28;20177;-82
2023/07/02 04:42:57;;;;;;;4.47;4.17;;;18.10;99.90;;;;;;5014938;28;20180;-82
2023/07/02 04:45:24;;;;;;;5.77;4.23;;;18.10;99.90;;;;;;5019747;28;20301;-83
2023/07/02 04:47:51;;;;;;;5.07;4.70;;;18.00;99.90;;;;;;5027076;28;20184;-85
2023/07/02 04:50:19;;;;;;;5.10;4.60;;;18.00;99.90;;;;;;4998153;28;20525;-82
2023/07/02 04:52:45;;;;;;;5.30;4.90;;;18.00;99.90;;;;;;5014676;28;20759;-84
2023/07/02 04:55:11;;;;;;;5.47;5.00;;;18.00;99.90;;;;;;5014423;28;20180;-83
2023/07/02 04:57:37;;;;;;;4.77;4.17;;;18.00;99.90;;;;;;4997456;28;20581;-82
2023/07/02 05:00:05;;;;;;;4.63;4.23;;;18.10;99.90;;;;;;5017346;28;20653;-83
2023/07/02 05:02:31;;;;;;;5.30;4.53;;;18.20;99.90;;;;;;5014144;28;20177;-85
2023/07/02 05:04:57;;;;;;;5.13;4.73;;;18.30;99.90;;;;;;5013976;28;20277;-82
2023/07/02 05:07:23;;;;;;;6.30;4.70;;;18.30;99.90;;;;;;5014366;28;20177;-84
2023/07/02 05:09:51;;;;;;;5.13;4.63;;;18.40;99.90;;;;;;5014552;28;20173;-83
2023/07/02 05:12:17;;;;;;;5.30;4.80;;;18.40;99.90;;;;;;5013825;28;20168;-81
2023/07/02 05:14:43;;;;;;;5.23;4.83;;;18.40;99.90;;;;;;5013781;28;20166;-83
2023/07/02 05:17:09;;;;;;;5.00;4.63;;;18.50;99.90;;;;;;5013566;28;20708;-83
2023/07/02 05:19:35;;;;;;;5.40;4.90;;;18.60;99.90;;;;;;5013726;28;20572;-82
2023/07/02 05:22:00;;;;;;;5.17;4.67;;;18.60;99.90;;;;;;5013518;28;20272;-81
2023/07/02 05:24:26;;;;;;;5.23;4.80;;;18.60;99.90;;;;;;5013856;28;20209;-82
2023/07/02 05:26:52;;;;;;;5.10;4.70;;;18.60;99.90;;;;;;5013549;28;20232;-81
2023/07/02 05:29:18;;;;;;;5.17;4.83;;;18.70;99.90;;;;;;5014159;28;20252;-81
2023/07/02 05:31:44;;;;;;;5.30;4.77;;;18.60;99.90;;;;;;4996575;28;20205;-82
2023/07/02 05:34:10;;;;;;;5.50;5.03;;;18.70;99.90;;;;;;5013700;28;20194;-83
2023/07/02 05:36:35;;;;;;;5.13;4.70;;;18.70;99.90;;;;;;5013957;28;20202;-85
2023/07/02 05:39:01;;;;;;;5.47;4.97;;;18.70;99.90;;;;;;5015744;28;20177;-85
2023/07/02 05:41:30;;;;;;;5.73;5.20;;;18.70;99.90;;;;;;5014378;28;20181;-84
2023/07/02 05:43:59;;;;;;;5.30;4.83;;;18.80;99.90;;;;;;4996766;28;20252;-84
2023/07/02 05:46:25;;;;;;;6.00;5.50;;;18.80;99.90;;;;;;5013940;28;20173;-82
2023/07/02 05:48:51;;;;;;;5.97;5.47;;;18.90;99.90;;;;;;5027197;28;20184;-84
2023/07/02 05:51:21;;;;;;;5.10;4.70;;;19.00;99.90;;;;;;5018230;28;20177;-84
2023/07/02 05:53:47;;;;;;;5.20;4.80;;;19.00;99.90;;;;;;5017911;28;20557;-84
2023/07/02 05:56:13;;;;;;;6.10;5.60;;;19.10;99.90;;;;;;4999647;28;20231;-85
2023/07/02 05:58:39;;;;;;;5.70;5.20;;;19.20;99.90;;;;;;5017396;28;20181;-84
2023/07/02 06:01:05;;;;;;;5.50;5.00;;;19.20;99.90;;;;;;5017875;28;20177;-85
2023/07/02 06:03:31;;;;;;;4.97;4.67;;;19.20;99.90;;;;;;5018505;28;20209;-83
2023/07/02 06:05:57;;;;;;;5.17;4.67;;;19.20;99.90;;;;;;5017631;28;20243;-84
2023/07/02 06:08:23;;;;;;;5.80;5.30;;;19.20;99.90;;;;;;5025800;28;20181;-82
2023/07/02 06:10:49;;;;;;;5.20;4.80;;;19.30;99.90;;;;;;5031870;28;20169;-83
2023/07/02 06:13:15;;;;;;;5.63;5.13;;;19.30;99.90;;;;;;5002727;28;20189;-82
2023/07/02 06:15:41;;;;;;;5.20;4.73;;;19.50;99.90;;;;;;5022995;28;20185;-84
2023/07/02 06:18:07;;;;;;;5.20;4.80;;;19.50;99.90;;;;;;5022951;28;20204;-83
2023/07/02 06:20:32;;;;;;;4.90;4.50;;;19.60;99.90;;;;;;5028164;28;20156;-84
2023/07/02 06:22:58;;;;;;;4.80;4.50;;;19.70;99.90;;;;;;5040731;28;20209;-83
2023/07/02 06:25:24;;;;;;;5.40;4.90;;;19.70;99.90;;;;;;5034484;28;20295;-85
2023/07/02 06:27:51;;;;;;;6.20;5.60;;;19.50;99.90;;;;;;5019054;28;20233;-84
2023/07/02 06:30:17;;;;;;;5.43;4.93;;;19.50;99.90;;;;;;5019729;28;20183;-83
2023/07/02 06:32:43;;;;;;;6.03;5.53;;;19.50;99.90;;;;;;5017983;28;20176;-84
2023/07/02 06:35:09;;;;;;;5.37;4.97;;;19.50;99.90;;;;;;5018989;28;20659;-85
2023/07/02 06:37:34;;;;;;;4.67;4.27;;;19.40;99.90;;;;;;5017258;28;20247;-85
2023/07/02 06:40:00;;;;;;;5.30;4.90;;;19.40;99.90;;;;;;5000306;28;20208;-83
2023/07/02 06:42:26;;;;;;;5.67;5.17;;;19.40;99.90;;;;;;5017766;28;20177;-84
2023/07/02 06:44:52;;;;;;;4.43;4.13;;;19.50;99.90;;;;;;5017025;28;20333;-83
2023/07/02 06:47:18;;;;;;;5.47;5.07;;;19.50;99.90;;;;;;5016623;28;20273;-84
2023/07/02 06:49:43;;;;;;;5.73;4.83;;;19.60;99.90;;;;;;5016692;28;20265;-84
2023/07/02 06:52:11;;;;;;;5.60;5.10;;;19.70;99.90;;;;;;5017816;28;20178;-82
2023/07/02 06:54:36;;;;;;;5.83;5.33;;;19.60;99.90;;;;;;5022694;28;20260;-84
2023/07/02 06:57:02;;;;;;;5.03;4.63;;;19.70;99.90;;;;;;5016674;28;20256;-83
2023/07/02 06:59:28;;;;;;;5.67;5.17;;;19.80;99.90;;;;;;5016248;28;20625;-83
2023/07/02 07:01:54;;;;;;;5.53;5.03;;;19.90;99.90;;;;;;5019312;28;20182;-83
2023/07/02 07:04:20;;;;;;;5.47;5.03;;;20.00;99.90;;;;;;5020658;28;20213;-83
2023/07/02 07:06:45;;;;;;;5.17;4.77;;;20.10;99.90;;;;;;5019324;28;20244;-83
2023/07/02 07:09:11;;;;;;;4.20;3.90;;;20.30;99.90;;;;;;5016564;28;20514;-82
2023/07/02 07:11:37;;;;;;;4.93;4.53;;;20.50;99.90;;;;;;5015914;28;20181;-84
2023/07/02 07:14:03;;;;;;;4.47;4.17;;;20.90;99.90;;;;;;5016158;28;20251;-86
2023/07/02 07:16:29;;;;;;;4.03;3.73;;;21.20;99.90;;;;;;5008548;28;20215;-84
2023/07/02 07:18:54;;;;;;;4.20;3.90;;;21.40;99.90;;;;;;5020332;28;20181;-84
2023/07/02 07:21:20;;;;;;;4.43;4.10;;;21.60;99.90;;;;;;5016225;28;20178;-84
2023/07/02 07:23:46;;;;;;;4.63;4.20;;;21.90;99.90;;;;;;5015537;28;20621;-84
2023/07/02 07:26:12;;;;;;;4.60;4.30;;;22.20;99.90;;;;;;5015442;28;20188;-84
2023/07/02 07:28:37;;;;;;;3.90;3.60;;;22.30;99.90;;;;;;5031645;28;20220;-84
2023/07/02 07:31:03;;;;;;;4.00;3.70;;;22.70;99.90;;;;;;5018951;28;20633;-83
2023/07/02 07:33:29;;;;;;;3.30;3.05;;;22.80;99.90;;;;;;5016112;28;20248;-84
2023/07/02 07:35:55;;;;;;;3.77;3.43;;;22.90;99.90;;;;;;4997737;28;20569;-85
2023/07/02 07:38:20;;;;;;;3.37;3.07;;;23.10;99.90;;;;;;5015619;28;20228;-83
2023/07/02 07:40:46;;;;;;;3.03;2.83;;;23.20;99.90;;;;;;5016542;28;20220;-86
2023/07/02 07:43:12;;;;;;;3.08;2.92;;;23.20;99.90;;;;;;5015551;28;20185;-84
2023/07/02 07:45:38;;;;;;;2.50;2.40;;;23.20;99.90;;;;;;4997523;28;20209;-86
2023/07/02 07:48:07;;;;;;;3.10;2.90;;;23.20;99.90;;;;;;5015440;28;20170;-84
2023/07/02 07:50:34;;;;;;;2.80;2.70;;;23.30;99.90;;;;;;5015823;28;20173;-85
2023/07/02 07:52:59;;;;;;;3.23;3.03;;;23.20;99.90;;;;;;5015292;28;20181;-85
2023/07/02 07:55:25;;;;;;;2.80;2.60;;;23.10;99.90;;;;;;5015987;28;20311;-84
2023/07/02 07:57:51;;;;;;;2.60;2.50;;;23.10;99.90;;;;;;5017677;28;20316;-83
2023/07/02 08:00:17;;;;;;;2.97;2.77;;;23.10;99.90;;;;;;5019872;28;20177;-85
2023/07/02 08:02:44;;;;;;;2.45;2.30;;;23.10;99.90;;;;;;5019729;28;20189;-85
2023/07/02 08:05:12;;;;;;;2.50;2.30;;;23.10;99.90;;;;;;5000124;28;20236;-84
2023/07/02 08:07:40;;;;;;;2.30;2.20;;;23.10;99.90;;;;;;4996976;28;20592;-86
2023/07/02 08:10:07;;;;;;;2.47;2.37;;;23.10;99.90;;;;;;5014449;28;20659;-83
2023/07/02 08:12:34;;;;;;;2.63;2.00;;;23.00;99.90;;;;;;5014587;28;20173;-81
2023/07/02 08:14:59;;;;;;;2.65;2.55;;;23.00;99.90;;;;;;5013818;28;20177;-82
2023/07/02 08:17:25;;;;;;;2.30;2.20;;;22.90;99.90;;;;;;5014348;28;20183;-83
2023/07/02 08:19:51;;;;;;;2.90;2.00;;;22.80;99.90;;;;;;5014406;28;20201;-84
2023/07/02 08:22:17;;;;;;;1.80;1.80;;;22.90;99.90;;;;;;5014329;28;20177;-85
2023/07/02 08:24:42;;;;;;;1.83;1.60;;;22.80;99.90;;;;;;4998607;28;20212;-83
2023/07/02 08:27:10;;;;;;;2.13;2.03;;;22.90;99.90;;;;;;5016343;28;20315;-84
2023/07/02 08:29:37;;;;;;;2.20;2.10;;;22.80;99.90;;;;;;5016958;28;20173;-83
2023/07/02 08:32:03;;;;;;;2.50;2.38;;;22.90;99.90;;;;;;4999985;28;20184;-83
2023/07/02 08:34:31;;;;;;;1.70;1.70;;;22.90;99.90;;;;;;5018633;28;20207;-83
2023/07/02 08:36:57;;;;;;;2.10;2.03;;;22.90;99.90;;;;;;5007387;28;20173;-84
2023/07/02 08:39:25;;;;;;;2.20;2.10;;;23.00;99.90;;;;;;5037099;28;20192;-83
2023/07/02 08:41:51;;;;;;;1.90;1.80;;;23.10;99.90;;;;;;5011231;28;20173;-83
2023/07/02 08:44:21;;;;;;;2.00;1.90;;;23.30;99.80;;;;;;5017826;28;20213;-83
2023/07/02 08:46:50;;;;;;;2.10;1.88;;;23.20;99.90;;;;;;5014534;28;20645;-82
2023/07/02 08:49:16;;;;;;;1.80;1.70;;;23.30;99.90;;;;;;5014121;28;20173;-83
2023/07/02 08:51:45;;;;;;;1.90;1.90;;;23.50;99.90;;;;;;5013760;28;20177;-85
2023/07/02 08:54:11;;;;;;;2.17;2.08;;;23.70;99.90;;;;;;5014156;28;20169;-83
2023/07/02 08:56:36;;;;;;;1.45;1.30;;;23.80;99.90;;;;;;5024251;28;20169;-83
2023/07/02 08:59:02;;;;;;;1.65;1.65;;;23.70;99.10;;;;;;5007460;28;20231;-84
2023/07/02 09:01:28;;;;;;;1.52;1.50;;;23.70;99.30;;;;;;5016623;28;20173;-86
2023/07/02 09:04:01;;;;;;;1.48;1.48;;;23.60;99.30;;;;;;5014340;28;20177;-82
2023/07/02 09:06:27;;;;;;;1.40;1.40;;;23.80;99.80;;;;;;5015267;28;20176;-85
2023/07/02 09:09:02;;;;;;;1.88;1.77;;;24.20;99.50;;;;;;5018556;28;20165;-84
2023/07/02 09:11:28;;;;;;;2.03;1.98;;;24.40;99.20;;;;;;5016928;28;20323;-84
2023/07/02 09:13:58;;;;;;;1.70;1.60;;;24.70;99.20;;;;;;5016590;28;20632;-81
2023/07/02 09:16:32;;;;;;;1.42;1.40;;;24.70;98.60;;;;;;5013699;28;20162;-81
2023/07/02 09:19:09;;;;;;;1.20;1.20;;;24.80;98.50;;;;;;4995899;28;20213;-81
2023/07/02 09:21:46;;;;;;;1.80;1.70;;;24.80;98.50;;;;;;5013498;28;20789;-85
2023/07/02 09:24:22;;;;;;;1.15;1.15;;;24.90;98.70;;;;;;4995662;28;20197;-85
2023/07/02 09:26:53;;;;;;;1.02;1.02;;;24.80;97.80;;;;;;5015609;28;20212;-83
2023/07/02 09:29:28;;;;;;;1.20;1.20;;;24.70;97.50;;;;;;5017163;28;20201;-84
2023/07/02 09:32:03;;;;;;;1.20;1.10;;;24.70;97.40;;;;;;5017720;28;20674;-82
2023/07/02 09:34:31;;;;;;;1.58;1.48;;;24.80;97.70;;;;;;5017781;28;20617;-83
2023/07/02 09:36:58;;;;;;;1.50;1.50;;;24.80;97.90;;;;;;5000312;28;20181;-84
2023/07/02 09:39:29;;;;;;;1.83;1.75;;;24.70;98.10;;;;;;5017336;28;20165;-84
2023/07/02 09:41:57;;;;;;;1.73;1.40;;;24.80;98.50;;;;;;5017812;28;20173;-83
2023/07/02 09:44:30;;;;;;;1.60;1.50;;;24.80;98.00;;;;;;5020226;28;20669;-82
2023/07/02 09:47:07;;;;;;;1.50;1.50;;;24.90;98.30;;;;;;5019486;28;20637;-83
2023/07/02 09:49:38;;;;;;;1.95;1.20;;;25.10;97.80;;;;;;5003097;28;20173;-84
2023/07/02 09:52:07;;;;;;;1.80;1.70;;;25.30;96.80;;;;;;5017975;28;20689;-84
2023/07/02 09:54:33;;;;;;;1.30;1.30;;;25.50;96.30;;;;;;5029611;28;20173;-84
2023/07/02 09:56:59;;;;;;;1.20;1.20;;;25.60;95.80;;;;;;5022785;28;20173;-85
2023/07/02 09:59:25;;;;;;;1.30;1.30;;;25.50;96.20;;;;;;5018809;28;20183;-83
2023/07/02 10:01:52;;;;;;;1.30;1.30;;;25.60;96.20;;;;;;5018026;28;20312;-85
2023/07/02 10:04:19;;;;;;;1.48;1.48;;;25.90;96.00;;;;;;5001236;28;20277;-84
2023/07/02 10:06:50;;;;;;;1.42;1.42;;;26.10;96.10;;;;;;5018031;28;20173;-84
2023/07/02 10:09:17;;;;;;;1.35;1.35;;;26.30;96.00;;;;;;5018004;28;20173;-84
2023/07/02 10:11:43;;;;;;;1.45;1.45;;;26.50;96.10;;;;;;5017812;28;20637;-85
2023/07/02 10:14:09;;;;;;;1.38;1.38;;;26.60;95.60;;;;;;5017635;28;20173;-84
2023/07/02 10:16:51;;;;;;;1.30;1.30;;;26.40;96.00;;;;;;5017594;28;20668;-82
2023/07/02 10:19:17;;;;;;;1.50;1.40;;;26.20;96.10;;;;;;5017496;28;20157;-83
2023/07/02 10:21:45;;;;;;;1.60;1.50;;;26.10;96.30;;;;;;4999558;28;20239;-83
2023/07/02 10:24:16;;;;;;;1.50;1.50;;;26.00;96.60;;;;;;5016423;28;20189;-83
2023/07/02 10:26:54;;;;;;;1.60;1.60;;;25.90;96.20;;;;;;5016662;28;20587;-84
2023/07/02 10:29:20;;;;;;;1.80;1.70;;;26.00;96.90;;;;;;5016946;28;20243;-82
2023/07/02 10:31:54;;;;;;;1.90;1.80;;;26.30;96.10;;;;;;5016597;28;20169;-82
2023/07/02 10:34:30;;;;;;;1.67;1.58;;;26.50;96.30;;;;;;5002658;28;20271;-82
2023/07/02 10:36:56;;;;;;;1.80;1.70;;;26.70;95.90;;;;;;5001879;28;20176;-82
2023/07/02 10:39:23;;;;;;;2.40;2.20;;;26.60;95.90;;;;;;5016656;28;20223;-83
2023/07/02 10:41:49;;;;;;;1.65;1.65;;;26.70;96.80;;;;;;5001036;28;20710;-83
2023/07/02 10:44:15;;;;;;;2.05;1.60;;;26.60;95.60;;;;;;5001272;28;20209;-84
2023/07/02 10:46:45;;;;;;;1.40;1.40;;;26.40;95.30;;;;;;5029505;28;20173;-84
2023/07/02 10:49:11;;;;;;;1.50;1.50;;;26.40;95.70;;;;;;5024410;28;20170;-85
2023/07/02 10:51:38;;;;;;;1.92;1.83;;;26.30;95.90;;;;;;4999721;28;20181;-85
2023/07/02 10:54:07;;;;;;;2.38;2.15;;;26.40;96.60;;;;;;5032111;28;20166;-85
2023/07/02 10:56:34;;;;;;;1.80;1.70;;;26.60;96.70;;;;;;5038138;28;20169;-84
2023/07/02 10:59:00;;;;;;;2.03;1.92;;;26.70;97.50;;;;;;5021134;28;20180;-84
2023/07/02 11:01:31;;;;;;;2.00;1.90;;;26.80;97.00;;;;;;5000393;28;20177;-84
2023/07/02 11:04:02;;;;;;;1.63;1.63;;;26.80;97.00;;;;;;5020235;28;20165;-84
2023/07/02 11:06:28;;;;;;;2.53;2.20;;;26.90;95.60;;;;;;5016632;28;20169;-84
2023/07/02 11:08:55;;;;;;;1.90;1.80;;;26.90;96.30;;;;;;5016312;28;20208;-85
2023/07/02 11:11:22;;;;;;;2.00;1.90;;;26.90;96.40;;;;;;5017960;28;20165;-84
2023/07/02 11:13:52;;;;;;;1.90;1.80;;;26.90;96.30;;;;;;4998763;28;20517;-84
2023/07/02 11:16:26;;;;;;;2.05;1.95;;;26.80;96.70;;;;;;5015168;28;20514;-84
2023/07/02 11:19:10;;;;;;;2.15;1.95;;;26.70;96.70;;;;;;5019353;28;20168;-84
2023/07/02 11:21:37;;;;;;;2.20;2.10;;;26.60;96.10;;;;;;5017493;28;20157;-83
2023/07/02 11:24:08;;;;;;;2.30;1.95;;;26.70;96.90;;;;;;4998042;28;20207;-83
2023/07/02 11:26:38;;;;;;;2.20;2.10;;;26.90;96.40;;;;;;4994128;28;20222;-85
2023/07/02 11:29:08;;;;;;;1.70;1.70;;;27.20;96.50;;;;;;4958776;28;20306;-84
2023/07/02 11:31:33;;;;;;;2.00;1.90;;;27.30;95.50;;;;;;4976629;28;20179;-83
2023/07/02 11:33:59;;;;;;;2.40;2.30;;;27.40;95.40;;;;;;4977321;28;20233;-84
2023/07/02 11:36:25;;;;;;;1.90;1.90;;;27.60;94.00;;;;;;4977361;28;20206;-80
2023/07/02 11:38:51;;;;;;;2.03;1.92;;;27.80;94.10;;;;;;4975478;28;20174;-82
2023/07/02 11:41:18;;;;;;;1.73;1.73;;;27.90;94.50;;;;;;4976551;28;20178;-82
2023/07/02 11:43:44;;;;;;;1.90;1.80;;;27.80;94.50;;;;;;4976667;28;20167;-85
2023/07/02 11:46:10;;;;;;;1.90;1.90;;;27.40;94.40;;;;;;4979212;28;20295;-82
2023/07/02 11:48:36;;;;;;;2.20;2.10;;;27.20;95.40;;;;;;4980612;28;20233;-84
2023/07/02 11:51:01;;;;;;;2.10;1.95;;;26.80;94.90;;;;;;4975585;28;20230;-84
2023/07/02 11:53:27;;;;;;;2.20;2.10;;;26.80;95.70;;;;;;4975188;28;20198;-84
2023/07/02 11:55:53;;;;;;;2.88;2.67;;;27.00;95.70;;;;;;4975571;28;20190;-82
2023/07/02 11:58:19;;;;;;;2.30;2.20;;;27.20;95.50;;;;;;4974089;28;20186;-82
2023/07/02 12:00:44;;;;;;;2.28;2.17;;;27.30;96.10;;;;;;4975374;28;20202;-82
2023/07/02 12:03:10;;;;;;;2.20;2.10;;;27.30;96.30;;;;;;4975355;28;20705;-81
2023/07/02 12:05:36;;;;;;;2.08;1.98;;;27.60;95.30;;;;;;4975013;28;20294;-83
2023/07/02 12:08:03;;;;;;;2.10;2.00;;;27.80;95.50;;;;;;4975289;28;20703;-83
2023/07/02 12:10:28;;;;;;;2.15;2.05;;;27.70;94.90;;;;;;4975237;28;20170;-83
2023/07/02 12:12:54;;;;;;;1.92;1.90;;;27.70;95.10;;;;;;4976739;28;20172;-84
2023/07/02 12:15:20;;;;;;;2.33;2.13;;;27.80;93.80;;;;;;4961911;28;20175;-82
2023/07/02 12:17:46;;;;;;;1.85;1.77;;;27.70;94.40;;;;;;4975663;28;20531;-84
2023/07/02 12:20:12;;;;;;;2.17;2.08;;;27.60;93.90;;;;;;4957477;28;20194;-84
2023/07/02 12:22:37;;;;;;;2.30;2.20;;;27.40;94.00;;;;;;4975614;28;20662;-83
2023/07/02 12:25:03;;;;;;;2.60;2.40;;;27.10;95.90;;;;;;4977804;28;20198;-82
2023/07/02 12:27:29;;;;;;;2.17;2.08;;;26.80;96.40;;;;;;4975448;28;20245;-81
2023/07/02 12:29:56;;;;;;;2.25;2.15;;;26.60;96.50;;;;;;5013935;28;20245;-83
2023/07/02 12:32:22;;;;;;;1.90;1.80;;;26.40;95.00;;;;;;5015380;28;20236;-83
2023/07/02 12:34:49;;;;;;;1.90;1.80;;;26.20;96.10;;;;;;5017954;28;20180;-84
2023/07/02 12:37:17;;;;;;;1.40;1.40;;;25.70;96.70;;;;;;5001159;28;20177;-81
2023/07/02 12:39:44;;;;;;;1.40;1.40;;;25.40;97.30;;;;;;5000864;28;20208;-83
2023/07/02 12:42:10;;;;;;;1.30;1.30;;;25.10;97.90;;;;;;5018844;28;20172;-83
2023/07/02 12:44:36;;;;;;;1.42;1.42;;;24.90;97.70;;;;;;5019136;28;20569;-82
2023/07/02 12:47:02;;;;;;;1.17;1.17;;;24.80;98.50;;;;;;5019567;28;20178;-84